sensor_id;sensor_type;location;lat;lon;timestamp;pressure;altitude;pressure_sealevel;temperature;humidity
61528;BME280;47395;42.032;-8.634;2022-12-18T00:01:57;101285.00;;;14.78;69.72
61528;BME280;47395;42.032;-8.634;2022-12-18T00:04:04;101282.75;;;14.70;69.26
61528;BME280;47395;42.032;-8.634;2022-12-18T00:06:06;101292.16;;;14.75;68.87
61528;BME280;47395;42.032;-8.634;2022-12-18T00:08:10;101278.88;;;14.75;68.71
61528;BME280;47395;42.032;-8.634;2022-12-18T00:10:11;101298.28;;;14.78;68.16
61528;BME280;47395;42.032;-8.634;2022-12-18T00:12:12;101281.41;;;14.79;67.85
61528;BME280;47395;42.032;-8.634;2022-12-18T00:14:13;101288.25;;;14.67;68.41
61528;BME280;47395;42.032;-8.634;2022-12-18T00:16:16;101279.78;;;14.60;68.22
61528;BME280;47395;42.032;-8.634;2022-12-18T00:18:20;101291.41;;;14.73;67.88
61528;BME280;47395;42.032;-8.634;2022-12-18T00:20:21;101285.00;;;14.78;67.94
61528;BME280;47395;42.032;-8.634;2022-12-18T00:22:27;101286.63;;;14.80;67.34
61528;BME280;47395;42.032;-8.634;2022-12-18T00:24:28;101286.09;;;14.73;67.58
61528;BME280;47395;42.032;-8.634;2022-12-18T00:26:33;101281.53;;;14.75;67.20
61528;BME280;47395;42.032;-8.634;2022-12-18T00:28:35;101290.81;;;14.84;67.20
61528;BME280;47395;42.032;-8.634;2022-12-18T00:30:36;101279.59;;;14.79;66.56
61528;BME280;47395;42.032;-8.634;2022-12-18T00:32:40;101278.72;;;14.95;66.61
61528;BME280;47395;42.032;-8.634;2022-12-18T00:34:41;101268.81;;;14.82;65.98
61528;BME280;47395;42.032;-8.634;2022-12-18T00:36:43;101277.13;;;14.76;65.75
61528;BME280;47395;42.032;-8.634;2022-12-18T00:38:44;101266.53;;;14.76;65.33
61528;BME280;47395;42.032;-8.634;2022-12-18T00:40:45;101261.72;;;14.83;65.39
61528;BME280;47395;42.032;-8.634;2022-12-18T00:42:46;101276.09;;;14.79;65.46
61528;BME280;47395;42.032;-8.634;2022-12-18T00:44:56;101271.28;;;14.85;65.48
61528;BME280;47395;42.032;-8.634;2022-12-18T00:46:57;101272.41;;;14.81;64.95
61528;BME280;47395;42.032;-8.634;2022-12-18T00:48:58;101274.97;;;14.83;65.25
61528;BME280;47395;42.032;-8.634;2022-12-18T00:50:59;101265.81;;;14.88;65.16
61528;BME280;47395;42.032;-8.634;2022-12-18T00:53:02;101275.28;;;14.93;65.18
61528;BME280;47395;42.032;-8.634;2022-12-18T00:55:03;101270.09;;;14.91;65.46
61528;BME280;47395;42.032;-8.634;2022-12-18T00:57:05;101266.47;;;14.92;65.06
61528;BME280;47395;42.032;-8.634;2022-12-18T00:59:06;101267.06;;;14.97;64.98
61528;BME280;47395;42.032;-8.634;2022-12-18T01:01:07;101269.81;;;14.96;65.07
61528;BME280;47395;42.032;-8.634;2022-12-18T01:03:10;101259.84;;;14.99;65.06
61528;BME280;47395;42.032;-8.634;2022-12-18T01:05:15;101262.72;;;14.96;65.14
61528;BME280;47395;42.032;-8.634;2022-12-18T01:07:18;101260.34;;;15.06;65.25
61528;BME280;47395;42.032;-8.634;2022-12-18T01:09:19;101257.19;;;14.99;64.62
61528;BME280;47395;42.032;-8.634;2022-12-18T01:11:20;101254.47;;;15.01;65.25
61528;BME280;47395;42.032;-8.634;2022-12-18T01:13:22;101250.50;;;15.08;64.98
61528;BME280;47395;42.032;-8.634;2022-12-18T01:15:24;101238.69;;;15.14;64.93
61528;BME280;47395;42.032;-8.634;2022-12-18T01:17:26;101232.03;;;15.21;64.87
61528;BME280;47395;42.032;-8.634;2022-12-18T01:19:27;101237.91;;;15.12;64.94
61528;BME280;47395;42.032;-8.634;2022-12-18T01:21:28;101229.19;;;15.10;64.38
61528;BME280;47395;42.032;-8.634;2022-12-18T01:23:29;101235.94;;;15.16;64.90
61528;BME280;47395;42.032;-8.634;2022-12-18T01:25:38;101246.25;;;15.06;64.86
61528;BME280;47395;42.032;-8.634;2022-12-18T01:27:39;101247.75;;;15.10;65.01
61528;BME280;47395;42.032;-8.634;2022-12-18T01:29:40;101253.25;;;15.21;64.54
61528;BME280;47395;42.032;-8.634;2022-12-18T01:31:41;101249.28;;;15.14;64.61
61528;BME280;47395;42.032;-8.634;2022-12-18T01:33:42;101264.84;;;15.20;64.91
61528;BME280;47395;42.032;-8.634;2022-12-18T01:35:43;101261.34;;;15.20;65.38
61528;BME280;47395;42.032;-8.634;2022-12-18T01:37:44;101260.31;;;15.22;65.13
61528;BME280;47395;42.032;-8.634;2022-12-18T01:39:45;101259.63;;;15.19;65.25
61528;BME280;47395;42.032;-8.634;2022-12-18T01:41:47;101252.91;;;15.27;65.13
61528;BME280;47395;42.032;-8.634;2022-12-18T01:46:45;101255.75;;;15.24;65.13
61528;BME280;47395;42.032;-8.634;2022-12-18T01:48:54;101256.97;;;15.19;65.34
61528;BME280;47395;42.032;-8.634;2022-12-18T01:51:01;101250.81;;;15.18;65.29
61528;BME280;47395;42.032;-8.634;2022-12-18T01:53:10;101248.91;;;15.20;64.88
61528;BME280;47395;42.032;-8.634;2022-12-18T01:55:15;101246.34;;;15.19;65.42
61528;BME280;47395;42.032;-8.634;2022-12-18T01:57:17;101248.91;;;15.20;65.60
61528;BME280;47395;42.032;-8.634;2022-12-18T01:59:19;101254.31;;;15.19;65.69
61528;BME280;47395;42.032;-8.634;2022-12-18T02:01:22;101257.91;;;15.18;65.54
61528;BME280;47395;42.032;-8.634;2022-12-18T02:03:24;101260.88;;;15.13;65.54
61528;BME280;47395;42.032;-8.634;2022-12-18T02:08:30;101250.72;;;15.20;65.78
61528;BME280;47395;42.032;-8.634;2022-12-18T02:10:34;101242.84;;;15.18;65.60
61528;BME280;47395;42.032;-8.634;2022-12-18T02:15:24;101261.53;;;15.17;65.96
61528;BME280;47395;42.032;-8.634;2022-12-18T02:17:42;101256.59;;;15.25;65.48
61528;BME280;47395;42.032;-8.634;2022-12-18T02:20:00;101261.22;;;15.21;65.31
61528;BME280;47395;42.032;-8.634;2022-12-18T02:27:19;101255.16;;;15.19;65.68
61528;BME280;47395;42.032;-8.634;2022-12-18T02:29:23;101250.16;;;15.29;65.26
61528;BME280;47395;42.032;-8.634;2022-12-18T02:31:31;101257.44;;;15.25;65.64
61528;BME280;47395;42.032;-8.634;2022-12-18T02:33:36;101261.53;;;15.17;65.66
61528;BME280;47395;42.032;-8.634;2022-12-18T02:35:40;101256.88;;;15.20;65.78
61528;BME280;47395;42.032;-8.634;2022-12-18T02:37:43;101268.63;;;15.16;65.94
61528;BME280;47395;42.032;-8.634;2022-12-18T02:39:47;101269.66;;;15.13;66.25
61528;BME280;47395;42.032;-8.634;2022-12-18T02:41:50;101270.88;;;15.08;66.19
61528;BME280;47395;42.032;-8.634;2022-12-18T02:44:00;101278.06;;;15.06;66.26
61528;BME280;47395;42.032;-8.634;2022-12-18T02:46:46;101279.28;;;15.00;66.35
61528;BME280;47395;42.032;-8.634;2022-12-18T02:48:49;101275.84;;;15.14;65.86
61528;BME280;47395;42.032;-8.634;2022-12-18T02:51:08;101279.44;;;15.13;65.95
61528;BME280;47395;42.032;-8.634;2022-12-18T02:53:29;101268.69;;;15.14;65.96
61528;BME280;47395;42.032;-8.634;2022-12-18T02:56:10;101283.56;;;15.03;66.67
61528;BME280;47395;42.032;-8.634;2022-12-18T02:58:26;101270.53;;;15.14;66.17
61528;BME280;47395;42.032;-8.634;2022-12-18T03:00:39;101263.13;;;15.19;65.88
61528;BME280;47395;42.032;-8.634;2022-12-18T03:03:02;101261.97;;;15.09;65.66
61528;BME280;47395;42.032;-8.634;2022-12-18T03:05:12;101262.28;;;15.19;66.02
61528;BME280;47395;42.032;-8.634;2022-12-18T03:07:23;101262.56;;;15.14;65.69
61528;BME280;47395;42.032;-8.634;2022-12-18T03:09:49;101261.00;;;14.95;66.19
61528;BME280;47395;42.032;-8.634;2022-12-18T03:11:56;101272.59;;;15.09;65.60
61528;BME280;47395;42.032;-8.634;2022-12-18T03:14:20;101266.66;;;15.20;65.45
61528;BME280;47395;42.032;-8.634;2022-12-18T03:16:27;101277.34;;;15.18;65.47
61528;BME280;47395;42.032;-8.634;2022-12-18T03:18:39;101277.94;;;15.23;65.40
61528;BME280;47395;42.032;-8.634;2022-12-18T03:20:44;101282.38;;;15.23;65.50
61528;BME280;47395;42.032;-8.634;2022-12-18T03:22:54;101281.97;;;15.14;65.79
61528;BME280;47395;42.032;-8.634;2022-12-18T03:25:01;101284.53;;;15.16;65.76
61528;BME280;47395;42.032;-8.634;2022-12-18T03:27:15;101284.44;;;15.18;65.84
61528;BME280;47395;42.032;-8.634;2022-12-18T03:29:25;101277.47;;;15.31;65.78
61528;BME280;47395;42.032;-8.634;2022-12-18T03:31:30;101282.66;;;15.18;65.89
61528;BME280;47395;42.032;-8.634;2022-12-18T03:33:43;101286.06;;;15.20;66.29
61528;BME280;47395;42.032;-8.634;2022-12-18T03:35:48;101274.72;;;15.18;66.34
61528;BME280;47395;42.032;-8.634;2022-12-18T03:37:49;101280.44;;;15.10;66.48
61528;BME280;47395;42.032;-8.634;2022-12-18T03:39:50;101280.00;;;15.18;66.41
61528;BME280;47395;42.032;-8.634;2022-12-18T03:47:44;101256.59;;;15.25;65.90
61528;BME280;47395;42.032;-8.634;2022-12-18T03:50:11;101261.53;;;15.17;66.59
61528;BME280;47395;42.032;-8.634;2022-12-18T03:52:41;101267.88;;;15.14;66.57
61528;BME280;47395;42.032;-8.634;2022-12-18T03:54:46;101263.31;;;15.16;66.16
61528;BME280;47395;42.032;-8.634;2022-12-18T03:56:58;101275.44;;;15.06;66.31
61528;BME280;47395;42.032;-8.634;2022-12-18T03:59:01;101276.13;;;15.24;66.28
61528;BME280;47395;42.032;-8.634;2022-12-18T04:01:07;101278.19;;;15.19;66.22
61528;BME280;47395;42.032;-8.634;2022-12-18T04:03:10;101279.44;;;15.13;66.20
61528;BME280;47395;42.032;-8.634;2022-12-18T04:05:19;101288.16;;;15.15;66.15
61528;BME280;47395;42.032;-8.634;2022-12-18T04:07:21;101282.44;;;15.07;66.20
61528;BME280;47395;42.032;-8.634;2022-12-18T04:09:24;101274.88;;;15.15;66.20
61528;BME280;47395;42.032;-8.634;2022-12-18T04:11:25;101279.78;;;15.07;66.58
61528;BME280;47395;42.032;-8.634;2022-12-18T04:13:28;101282.88;;;15.30;65.91
61528;BME280;47395;42.032;-8.634;2022-12-18T04:15:33;101265.97;;;15.16;66.11
61528;BME280;47395;42.032;-8.634;2022-12-18T04:17:35;101256.31;;;15.15;66.11
61528;BME280;47395;42.032;-8.634;2022-12-18T04:19:36;101258.56;;;15.21;65.98
61528;BME280;47395;42.032;-8.634;2022-12-18T04:21:38;101263.44;;;15.29;65.64
61528;BME280;47395;42.032;-8.634;2022-12-18T04:23:39;101267.50;;;15.35;65.52
61528;BME280;47395;42.032;-8.634;2022-12-18T04:25:41;101266.41;;;15.53;65.50
61528;BME280;47395;42.032;-8.634;2022-12-18T04:27:46;101261.28;;;15.50;65.15
61528;BME280;47395;42.032;-8.634;2022-12-18T04:29:47;101266.97;;;15.44;65.14
61528;BME280;47395;42.032;-8.634;2022-12-18T04:31:49;101267.72;;;15.32;65.40
61528;BME280;47395;42.032;-8.634;2022-12-18T04:33:50;101269.59;;;15.30;65.40
61528;BME280;47395;42.032;-8.634;2022-12-18T04:35:51;101272.47;;;15.41;64.84
61528;BME280;47395;42.032;-8.634;2022-12-18T04:37:52;101269.03;;;15.39;65.09
61528;BME280;47395;42.032;-8.634;2022-12-18T04:39:54;101280.25;;;15.44;64.30
61528;BME280;47395;42.032;-8.634;2022-12-18T04:42:02;101282.78;;;15.46;64.51
61528;BME280;47395;42.032;-8.634;2022-12-18T04:44:04;101281.47;;;15.53;64.28
61528;BME280;47395;42.032;-8.634;2022-12-18T04:46:06;101272.63;;;15.52;64.56
61528;BME280;47395;42.032;-8.634;2022-12-18T04:48:07;101271.88;;;15.36;64.57
61528;BME280;47395;42.032;-8.634;2022-12-18T04:50:09;101268.28;;;15.37;64.51
61528;BME280;47395;42.032;-8.634;2022-12-18T04:52:09;101269.72;;;15.43;64.47
61528;BME280;47395;42.032;-8.634;2022-12-18T04:54:10;101251.22;;;15.41;64.12
61528;BME280;47395;42.032;-8.634;2022-12-18T04:56:14;101253.50;;;15.47;63.79
61528;BME280;47395;42.032;-8.634;2022-12-18T04:58:15;101253.41;;;15.34;63.97
61528;BME280;47395;42.032;-8.634;2022-12-18T05:00:16;101249.31;;;15.43;63.53
61528;BME280;47395;42.032;-8.634;2022-12-18T05:04:41;101233.50;;;15.56;63.42
61528;BME280;47395;42.032;-8.634;2022-12-18T05:06:42;101235.38;;;15.54;63.07
61528;BME280;47395;42.032;-8.634;2022-12-18T05:08:43;101239.63;;;15.57;63.18
61528;BME280;47395;42.032;-8.634;2022-12-18T05:10:43;101237.28;;;15.37;63.38
61528;BME280;47395;42.032;-8.634;2022-12-18T05:12:44;101236.31;;;15.53;63.27
61528;BME280;47395;42.032;-8.634;2022-12-18T05:15:00;101238.50;;;15.46;62.80
61528;BME280;47395;42.032;-8.634;2022-12-18T05:17:04;101234.31;;;15.57;62.90
61528;BME280;47395;42.032;-8.634;2022-12-18T05:19:05;101243.25;;;15.41;62.90
61528;BME280;47395;42.032;-8.634;2022-12-18T05:21:06;101220.31;;;15.40;62.42
61528;BME280;47395;42.032;-8.634;2022-12-18T05:23:07;101227.16;;;15.44;62.75
61528;BME280;47395;42.032;-8.634;2022-12-18T05:25:08;101226.09;;;15.47;62.19
61528;BME280;47395;42.032;-8.634;2022-12-18T05:27:09;101239.94;;;15.37;62.38
61528;BME280;47395;42.032;-8.634;2022-12-18T05:29:10;101236.31;;;15.53;62.59
61528;BME280;47395;42.032;-8.634;2022-12-18T05:31:13;101216.22;;;15.63;61.96
61528;BME280;47395;42.032;-8.634;2022-12-18T05:33:14;101212.13;;;15.43;62.28
61528;BME280;47395;42.032;-8.634;2022-12-18T05:35:16;101218.59;;;15.53;61.71
61528;BME280;47395;42.032;-8.634;2022-12-18T05:37:17;101215.47;;;15.61;62.03
61528;BME280;47395;42.032;-8.634;2022-12-18T05:39:18;101216.31;;;15.47;61.94
61528;BME280;47395;42.032;-8.634;2022-12-18T05:41:19;101215.56;;;15.45;61.95
61528;BME280;47395;42.032;-8.634;2022-12-18T05:43:20;101230.94;;;15.55;61.74
61528;BME280;47395;42.032;-8.634;2022-12-18T05:45:24;101231.88;;;15.53;61.91
61528;BME280;47395;42.032;-8.634;2022-12-18T05:47:26;101231.50;;;15.45;62.19
61528;BME280;47395;42.032;-8.634;2022-12-18T05:49:27;101233.84;;;15.50;61.91
61528;BME280;47395;42.032;-8.634;2022-12-18T05:51:28;101225.97;;;15.48;62.00
61528;BME280;47395;42.032;-8.634;2022-12-18T05:53:29;101231.19;;;15.50;61.89
61528;BME280;47395;42.032;-8.634;2022-12-18T05:55:38;101228.84;;;15.45;62.20
61528;BME280;47395;42.032;-8.634;2022-12-18T05:57:39;101221.53;;;15.63;61.44
61528;BME280;47395;42.032;-8.634;2022-12-18T05:59:40;101219.91;;;15.61;61.58
61528;BME280;47395;42.032;-8.634;2022-12-18T06:01:41;101215.00;;;15.55;61.73
61528;BME280;47395;42.032;-8.634;2022-12-18T06:03:43;101224.09;;;15.50;61.65
61528;BME280;47395;42.032;-8.634;2022-12-18T06:05:45;101213.09;;;15.42;61.82
61528;BME280;47395;42.032;-8.634;2022-12-18T06:07:46;101237.38;;;15.50;61.87
61528;BME280;47395;42.032;-8.634;2022-12-18T06:09:46;101227.97;;;15.45;62.04
61528;BME280;47395;42.032;-8.634;2022-12-18T06:11:47;101218.13;;;15.47;61.83
61528;BME280;47395;42.032;-8.634;2022-12-18T06:13:55;101226.19;;;15.45;61.73
61528;BME280;47395;42.032;-8.634;2022-12-18T06:15:56;101224.66;;;15.56;61.72
61528;BME280;47395;42.032;-8.634;2022-12-18T06:17:57;101225.97;;;15.48;62.05
61528;BME280;47395;42.032;-8.634;2022-12-18T06:19:58;101226.84;;;15.49;61.89
61528;BME280;47395;42.032;-8.634;2022-12-18T06:21:59;101225.41;;;15.43;61.90
61528;BME280;47395;42.032;-8.634;2022-12-18T06:24:00;101228.06;;;15.43;61.83
61528;BME280;47395;42.032;-8.634;2022-12-18T06:26:09;101230.94;;;15.55;61.41
61528;BME280;47395;42.032;-8.634;2022-12-18T06:28:11;101226.09;;;15.61;61.39
61528;BME280;47395;42.032;-8.634;2022-12-18T06:30:12;101216.88;;;15.67;61.97
61528;BME280;47395;42.032;-8.634;2022-12-18T06:32:13;101234.78;;;15.63;61.46
61528;BME280;47395;42.032;-8.634;2022-12-18T06:34:14;101231.66;;;15.57;61.74
61528;BME280;47395;42.032;-8.634;2022-12-18T06:36:16;101234.31;;;15.57;61.36
61528;BME280;47395;42.032;-8.634;2022-12-18T06:38:17;101240.22;;;15.62;61.45
61528;BME280;47395;42.032;-8.634;2022-12-18T06:40:18;101239.47;;;15.60;61.58
61528;BME280;47395;42.032;-8.634;2022-12-18T06:42:19;101244.28;;;15.53;61.59
61528;BME280;47395;42.032;-8.634;2022-12-18T06:44:19;101256.91;;;15.49;61.77
61528;BME280;47395;42.032;-8.634;2022-12-18T06:46:20;101260.31;;;15.51;61.88
61528;BME280;47395;42.032;-8.634;2022-12-18T06:48:22;101254.06;;;15.52;61.88
61528;BME280;47395;42.032;-8.634;2022-12-18T06:50:23;101253.78;;;15.57;61.88
61528;BME280;47395;42.032;-8.634;2022-12-18T06:52:24;101246.22;;;15.51;62.02
61528;BME280;47395;42.032;-8.634;2022-12-18T06:54:24;101259.28;;;15.54;61.69
61528;BME280;47395;42.032;-8.634;2022-12-18T06:56:25;101253.13;;;15.68;61.34
61528;BME280;47395;42.032;-8.634;2022-12-18T06:58:27;101251.13;;;15.57;61.26
61528;BME280;47395;42.032;-8.634;2022-12-18T07:00:28;101252.16;;;15.69;61.02
61528;BME280;47395;42.032;-8.634;2022-12-18T07:02:31;101254.47;;;15.75;61.16
61528;BME280;47395;42.032;-8.634;2022-12-18T07:04:32;101256.44;;;15.72;61.22
61528;BME280;47395;42.032;-8.634;2022-12-18T07:06:33;101264.88;;;15.64;61.38
61528;BME280;47395;42.032;-8.634;2022-12-18T07:08:35;101270.59;;;15.58;62.12
61528;BME280;47395;42.032;-8.634;2022-12-18T07:10:43;101274.38;;;15.68;61.61
61528;BME280;47395;42.032;-8.634;2022-12-18T07:12:44;101269.31;;;15.63;61.53
61528;BME280;47395;42.032;-8.634;2022-12-18T07:14:45;101262.44;;;15.75;60.98
61528;BME280;47395;42.032;-8.634;2022-12-18T07:16:46;101257.47;;;15.84;61.03
61528;BME280;47395;42.032;-8.634;2022-12-18T07:18:47;101256.81;;;15.80;60.94
61528;BME280;47395;42.032;-8.634;2022-12-18T07:20:47;101257.28;;;15.87;60.92
61528;BME280;47395;42.032;-8.634;2022-12-18T07:22:49;101255.84;;;15.81;61.35
61528;BME280;47395;42.032;-8.634;2022-12-18T07:24:51;101247.88;;;15.81;61.22
61528;BME280;47395;42.032;-8.634;2022-12-18T07:26:52;101262.03;;;15.82;60.98
61528;BME280;47395;42.032;-8.634;2022-12-18T07:28:56;101246.38;;;15.91;60.62
61528;BME280;47395;42.032;-8.634;2022-12-18T07:31:02;101258.44;;;15.97;60.74
61528;BME280;47395;42.032;-8.634;2022-12-18T07:33:03;101266.22;;;16.00;60.38
61528;BME280;47395;42.032;-8.634;2022-12-18T07:35:04;101265.44;;;16.13;59.98
61528;BME280;47395;42.032;-8.634;2022-12-18T07:37:06;101269.25;;;16.09;60.33
61528;BME280;47395;42.032;-8.634;2022-12-18T07:39:07;101260.22;;;16.11;60.32
61528;BME280;47395;42.032;-8.634;2022-12-18T07:41:10;101259.56;;;16.08;59.95
61528;BME280;47395;42.032;-8.634;2022-12-18T07:43:12;101264.00;;;16.22;60.02
61528;BME280;47395;42.032;-8.634;2022-12-18T07:45:14;101263.53;;;16.15;59.86
61528;BME280;47395;42.032;-8.634;2022-12-18T07:47:15;101272.25;;;16.17;59.92
61528;BME280;47395;42.032;-8.634;2022-12-18T07:49:15;101253.19;;;16.10;60.13
61528;BME280;47395;42.032;-8.634;2022-12-18T07:51:17;101257.13;;;16.32;59.37
61528;BME280;47395;42.032;-8.634;2022-12-18T07:53:18;101243.13;;;16.43;59.14
61528;BME280;47395;42.032;-8.634;2022-12-18T07:55:20;101242.69;;;16.36;59.55
61528;BME280;47395;42.032;-8.634;2022-12-18T07:57:21;101233.59;;;16.26;59.88
61528;BME280;47395;42.032;-8.634;2022-12-18T07:59:22;101239.31;;;16.20;60.25
61528;BME280;47395;42.032;-8.634;2022-12-18T08:01:23;101241.69;;;16.24;59.60
61528;BME280;47395;42.032;-8.634;2022-12-18T08:03:24;101251.47;;;16.24;59.82
61528;BME280;47395;42.032;-8.634;2022-12-18T08:05:25;101255.91;;;16.23;59.53
61528;BME280;47395;42.032;-8.634;2022-12-18T08:07:26;101263.00;;;16.37;59.75
61528;BME280;47395;42.032;-8.634;2022-12-18T08:09:27;101274.38;;;16.39;59.59
61528;BME280;47395;42.032;-8.634;2022-12-18T08:11:28;101273.22;;;16.16;60.26
61528;BME280;47395;42.032;-8.634;2022-12-18T08:13:29;101282.13;;;16.15;60.29
61528;BME280;47395;42.032;-8.634;2022-12-18T08:15:30;101279.47;;;16.15;60.21
61528;BME280;47395;42.032;-8.634;2022-12-18T08:17:31;101295.53;;;16.13;60.32
61528;BME280;47395;42.032;-8.634;2022-12-18T08:19:32;101293.94;;;16.11;60.32
61528;BME280;47395;42.032;-8.634;2022-12-18T08:21:32;101277.00;;;16.26;59.80
61528;BME280;47395;42.032;-8.634;2022-12-18T08:23:33;101288.41;;;16.28;59.74
61528;BME280;47395;42.032;-8.634;2022-12-18T08:25:34;101280.66;;;16.38;59.18
61528;BME280;47395;42.032;-8.634;2022-12-18T08:27:35;101294.03;;;16.51;59.36
61528;BME280;47395;42.032;-8.634;2022-12-18T08:29:37;101293.50;;;16.31;59.51
61528;BME280;47395;42.032;-8.634;2022-12-18T08:31:37;101308.09;;;16.39;59.71
61528;BME280;47395;42.032;-8.634;2022-12-18T08:33:40;101303.75;;;16.23;60.17
61528;BME280;47395;42.032;-8.634;2022-12-18T08:35:41;101295.19;;;16.47;59.84
61528;BME280;47395;42.032;-8.634;2022-12-18T08:37:43;101283.38;;;16.51;59.00
61528;BME280;47395;42.032;-8.634;2022-12-18T08:39:44;101286.75;;;16.40;59.48
61528;BME280;47395;42.032;-8.634;2022-12-18T08:41:44;101280.22;;;16.59;58.98
61528;BME280;47395;42.032;-8.634;2022-12-18T08:44:07;101278.88;;;16.66;59.02
61528;BME280;47395;42.032;-8.634;2022-12-18T08:46:30;101281.38;;;16.82;58.98
61528;BME280;47395;42.032;-8.634;2022-12-18T08:48:32;101279.56;;;16.55;59.33
61528;BME280;47395;42.032;-8.634;2022-12-18T08:50:33;101284.72;;;16.72;58.26
61528;BME280;47395;42.032;-8.634;2022-12-18T08:52:34;101285.56;;;16.72;58.56
61528;BME280;47395;42.032;-8.634;2022-12-18T08:54:35;101301.25;;;16.77;58.38
61528;BME280;47395;42.032;-8.634;2022-12-18T08:56:36;101309.13;;;16.78;58.12
61528;BME280;47395;42.032;-8.634;2022-12-18T08:58:36;101314.38;;;16.65;58.22
61528;BME280;47395;42.032;-8.634;2022-12-18T09:00:37;101311.69;;;16.80;58.18
61528;BME280;47395;42.032;-8.634;2022-12-18T09:02:38;101324.75;;;16.70;58.00
61528;BME280;47395;42.032;-8.634;2022-12-18T09:04:39;101320.13;;;16.87;58.29
61528;BME280;47395;42.032;-8.634;2022-12-18T09:06:40;101326.88;;;16.78;58.79
61528;BME280;47395;42.032;-8.634;2022-12-18T09:08:42;101321.63;;;16.91;58.15
61528;BME280;47395;42.032;-8.634;2022-12-18T09:10:47;101308.63;;;16.99;57.95
61528;BME280;47395;42.032;-8.634;2022-12-18T09:12:48;101304.19;;;17.00;57.75
61528;BME280;47395;42.032;-8.634;2022-12-18T09:14:49;101293.53;;;17.00;58.17
61528;BME280;47395;42.032;-8.634;2022-12-18T09:16:50;101279.31;;;17.14;57.61
61528;BME280;47395;42.032;-8.634;2022-12-18T09:18:51;101283.81;;;17.26;57.33
61528;BME280;47395;42.032;-8.634;2022-12-18T09:20:54;101269.53;;;17.27;57.27
61528;BME280;47395;42.032;-8.634;2022-12-18T09:22:54;101273.03;;;17.15;58.01
61528;BME280;47395;42.032;-8.634;2022-12-18T09:24:56;101264.66;;;17.34;57.44
61528;BME280;47395;42.032;-8.634;2022-12-18T09:26:57;101261.75;;;17.24;57.41
61528;BME280;47395;42.032;-8.634;2022-12-18T09:28:58;101277.63;;;17.26;57.62
61528;BME280;47395;42.032;-8.634;2022-12-18T09:30:58;101270.47;;;17.52;57.06
61528;BME280;47395;42.032;-8.634;2022-12-18T09:33:00;101283.81;;;17.26;57.31
61528;BME280;47395;42.032;-8.634;2022-12-18T09:35:00;101284.13;;;17.34;57.70
61528;BME280;47395;42.032;-8.634;2022-12-18T09:37:03;101304.69;;;17.45;57.53
61528;BME280;47395;42.032;-8.634;2022-12-18T09:39:04;101301.28;;;17.30;57.92
61528;BME280;47395;42.032;-8.634;2022-12-18T09:41:31;101301.72;;;17.37;57.87
61528;BME280;47395;42.032;-8.634;2022-12-18T09:43:40;101297.28;;;17.10;58.50
61528;BME280;47395;42.032;-8.634;2022-12-18T09:45:46;101301.06;;;17.20;58.73
61528;BME280;47395;42.032;-8.634;2022-12-18T09:47:48;101292.00;;;17.36;57.99
61528;BME280;47395;42.032;-8.634;2022-12-18T09:50:03;101280.63;;;17.34;58.18
61528;BME280;47395;42.032;-8.634;2022-12-18T09:54:52;101293.59;;;17.39;58.07
61528;BME280;47395;42.032;-8.634;2022-12-18T09:56:54;101312.38;;;17.37;58.09
61528;BME280;47395;42.032;-8.634;2022-12-18T09:59:00;101300.31;;;17.44;58.08
61528;BME280;47395;42.032;-8.634;2022-12-18T10:01:01;101305.97;;;17.79;57.92
61528;BME280;47395;42.032;-8.634;2022-12-18T10:03:09;101307.47;;;17.44;57.84
61528;BME280;47395;42.032;-8.634;2022-12-18T10:05:23;101317.38;;;17.42;58.02
61528;BME280;47395;42.032;-8.634;2022-12-18T10:08:05;101315.66;;;17.54;58.19
61528;BME280;47395;42.032;-8.634;2022-12-18T10:13:34;101307.28;;;17.60;58.54
61528;BME280;47395;42.032;-8.634;2022-12-18T10:16:15;101309.69;;;17.63;58.51
61528;BME280;47395;42.032;-8.634;2022-12-18T10:19:55;101310.47;;;17.65;58.68
61528;BME280;47395;42.032;-8.634;2022-12-18T10:21:21;101296.81;;;17.57;58.56
61528;BME280;47395;42.032;-8.634;2022-12-18T10:23:33;101315.03;;;17.50;59.05
61528;BME280;47395;42.032;-8.634;2022-12-18T10:25:41;101334.34;;;17.67;58.78
61528;BME280;47395;42.032;-8.634;2022-12-18T10:27:46;101332.84;;;17.88;58.96
61528;BME280;47395;42.032;-8.634;2022-12-18T10:29:49;101336.16;;;17.53;59.61
61528;BME280;47395;42.032;-8.634;2022-12-18T10:31:50;101347.81;;;17.25;60.83
61528;BME280;47395;42.032;-8.634;2022-12-18T10:33:55;101356.59;;;17.40;60.81
61528;BME280;47395;42.032;-8.634;2022-12-18T10:35:57;101362.81;;;17.13;61.47
61528;BME280;47395;42.032;-8.634;2022-12-18T10:38:02;101378.16;;;16.94;62.02
61528;BME280;47395;42.032;-8.634;2022-12-18T10:40:09;101370.72;;;17.00;62.35
61528;BME280;47395;42.032;-8.634;2022-12-18T10:42:19;101371.22;;;16.92;62.25
61528;BME280;47395;42.032;-8.634;2022-12-18T10:44:22;101374.00;;;16.90;62.45
61528;BME280;47395;42.032;-8.634;2022-12-18T10:46:26;101383.88;;;16.61;63.06
61528;BME280;47395;42.032;-8.634;2022-12-18T10:48:27;101376.91;;;17.00;62.22
61528;BME280;47395;42.032;-8.634;2022-12-18T10:50:36;101385.88;;;16.84;62.72
61528;BME280;47395;42.032;-8.634;2022-12-18T10:52:38;101377.91;;;16.84;62.86
61528;BME280;47395;42.032;-8.634;2022-12-18T10:54:39;101388.34;;;16.88;62.62
61528;BME280;47395;42.032;-8.634;2022-12-18T10:56:43;101384.63;;;16.90;62.46
61528;BME280;47395;42.032;-8.634;2022-12-18T10:58:59;101384.00;;;16.87;62.34
61528;BME280;47395;42.032;-8.634;2022-12-18T11:01:14;101395.56;;;16.86;62.50
61528;BME280;47395;42.032;-8.634;2022-12-18T11:06:09;101369.84;;;17.14;61.47
61528;BME280;47395;42.032;-8.634;2022-12-18T11:08:20;101364.34;;;17.30;59.76
61528;BME280;47395;42.032;-8.634;2022-12-18T11:10:32;101357.69;;;17.09;60.45
61528;BME280;47395;42.032;-8.634;2022-12-18T11:12:36;101342.47;;;17.12;60.45
61528;BME280;47395;42.032;-8.634;2022-12-18T11:14:51;101335.78;;;17.32;59.69